Oakville, Kentucky
Current Conditions -  °F | °C
As of 4:35 PM on Sunday 23 Nov 2014 (Local Time) from KM91 Reporting Station
Overcast Overcast  
Wind Chill: 57°   Ceiling: 1400
Heat Index: 57°   Visibility: 10mi
Dew Point: 57°   Wind: 14mph
Humidity: 100%   Direction: 160°SSE
Pressure: 29.4"   Gusts: 25mph
Location:  36.8547°N, 86.8859°W
Report Text: KM91 232235Z AUTO 16012G22KT 10SM BKN014 OVC022 14/14 A2940 RMK
Loading
Personal Weather Stations






























Interactive Weather Map New forecast layout! Learn more

10-Day Weather Forecast

Advertisements
Track Severe Weather on mobile